createdAt,value
2023-12-16T00:02:09.100Z,0.30
2023-12-16T00:07:07.578Z,0.30
2023-12-16T00:12:05.489Z,0.40
2023-12-16T00:17:04.174Z,0.60
2023-12-16T00:22:01.784Z,0.70
2023-12-16T00:26:59.296Z,0.70
2023-12-16T00:31:56.560Z,0.70
2023-12-16T00:36:53.961Z,0.80
2023-12-16T00:41:51.414Z,0.70
2023-12-16T00:46:49.121Z,0.70
2023-12-16T00:51:46.458Z,0.70
2023-12-16T00:56:43.780Z,0.40
2023-12-16T01:01:41.266Z,0.30
2023-12-16T01:06:38.675Z,0.30
2023-12-16T01:11:36.137Z,0.30
2023-12-16T01:16:33.637Z,0.40
2023-12-16T01:21:31.019Z,0.30
2023-12-16T01:26:29.008Z,0.20
2023-12-16T01:31:26.592Z,0.20
2023-12-16T01:36:24.068Z,0.40
2023-12-16T01:41:22.013Z,0.10
2023-12-16T01:46:21.971Z,0.00
2023-12-16T01:51:20.089Z,-0.10
2023-12-16T01:56:17.773Z,-0.10
2023-12-16T02:01:15.638Z,0.10
2023-12-16T02:06:13.338Z,0.30
2023-12-16T02:11:11.769Z,0.30
2023-12-16T02:16:11.556Z,0.20
2023-12-16T02:21:10.946Z,0.10
2023-12-16T02:26:10.560Z,0.10
2023-12-16T02:31:08.891Z,0.30
2023-12-16T02:36:08.425Z,-0.10
2023-12-16T02:41:06.673Z,0.00
2023-12-16T02:46:06.775Z,0.00
2023-12-16T02:51:05.244Z,-0.10
2023-12-16T02:56:06.070Z,0.00
2023-12-16T03:01:03.606Z,-0.10
2023-12-16T03:06:08.789Z,-0.10
2023-12-16T03:11:06.572Z,0.00
2023-12-16T03:16:04.940Z,0.00
2023-12-16T03:21:12.177Z,-0.20
2023-12-16T03:26:12.413Z,-0.40
2023-12-16T03:31:14.249Z,-0.30
2023-12-16T03:36:13.727Z,-0.30
2023-12-16T03:41:15.692Z,-0.20
2023-12-16T03:46:15.693Z,-0.20
2023-12-16T03:51:13.948Z,-0.20
2023-12-16T03:56:11.988Z,-0.10
2023-12-16T04:01:15.267Z,-0.10
2023-12-16T04:06:15.762Z,0.00
2023-12-16T04:11:13.527Z,0.10
2023-12-16T04:16:11.664Z,0.00
2023-12-16T04:21:09.417Z,0.00
2023-12-16T04:26:09.099Z,0.10
2023-12-16T04:31:07.047Z,0.00
2023-12-16T04:36:06.920Z,-0.20
2023-12-16T04:41:05.119Z,-0.30
2023-12-16T04:46:04.165Z,-0.30
2023-12-16T04:51:06.424Z,-0.30
2023-12-16T04:56:05.584Z,-0.20
2023-12-16T05:01:06.000Z,-0.20
2023-12-16T05:06:05.459Z,-0.30
2023-12-16T05:11:03.022Z,-0.20
2023-12-16T05:16:01.656Z,-0.20
2023-12-16T05:20:59.607Z,-0.40
2023-12-16T05:25:58.185Z,-0.40
2023-12-16T05:30:57.158Z,-0.30
2023-12-16T05:35:55.012Z,-0.40
2023-12-16T05:40:54.651Z,-0.40
2023-12-16T05:45:52.646Z,-0.30
2023-12-16T05:50:51.285Z,-0.40
2023-12-16T05:55:49.470Z,-0.50
2023-12-16T06:00:48.301Z,-0.60
2023-12-16T06:05:47.299Z,-0.60
2023-12-16T06:10:45.732Z,-0.50
2023-12-16T06:15:44.651Z,-0.40
2023-12-16T06:20:43.522Z,-0.40
2023-12-16T06:25:42.104Z,-0.40
2023-12-16T06:30:43.379Z,-0.50
2023-12-16T06:35:42.091Z,-0.60
2023-12-16T06:40:41.008Z,-0.80
2023-12-16T06:45:41.926Z,-0.80
2023-12-16T06:50:40.093Z,-0.90
2023-12-16T06:55:37.866Z,-0.90
2023-12-16T07:00:35.479Z,-0.70
2023-12-16T07:05:43.310Z,-0.90
2023-12-16T07:10:42.085Z,-1.00
2023-12-16T07:15:42.144Z,-1.00
2023-12-16T07:20:39.663Z,-1.00
2023-12-16T07:25:37.327Z,-1.10
2023-12-16T07:30:36.125Z,-1.00
2023-12-16T07:35:34.539Z,-0.90
2023-12-16T07:40:37.607Z,-0.90
2023-12-16T07:45:37.493Z,-1.00
2023-12-16T07:50:34.924Z,-0.90
2023-12-16T07:55:32.279Z,-0.90
2023-12-16T08:00:29.891Z,-0.80
2023-12-16T08:05:27.746Z,-0.90
2023-12-16T08:10:25.312Z,-0.90
2023-12-16T08:15:22.626Z,-0.90
2023-12-16T08:20:20.160Z,-0.90
2023-12-16T08:25:17.741Z,-1.00
2023-12-16T08:30:15.440Z,-1.00
2023-12-16T08:35:12.818Z,-0.90
2023-12-16T08:40:12.168Z,-0.90
2023-12-16T08:45:10.477Z,-0.80
2023-12-16T08:50:08.994Z,-0.70
2023-12-16T08:55:06.910Z,-0.60
2023-12-16T09:00:05.893Z,-0.50
2023-12-16T09:05:03.654Z,-0.60
2023-12-16T09:10:01.029Z,-0.50
2023-12-16T09:15:13.148Z,-0.50
2023-12-16T09:20:10.797Z,-0.30
2023-12-16T09:25:09.976Z,-0.20
2023-12-16T09:30:08.198Z,0.10
2023-12-16T09:35:05.910Z,-0.10
2023-12-16T09:40:04.253Z,-0.10
2023-12-16T09:45:01.575Z,0.00
2023-12-16T09:50:02.112Z,-0.10
2023-12-16T09:55:00.583Z,0.00
2023-12-16T09:59:58.475Z,0.00
2023-12-16T10:04:58.716Z,0.00
2023-12-16T10:09:56.030Z,0.30
2023-12-16T10:14:54.297Z,0.40
2023-12-16T10:19:52.257Z,0.30
2023-12-16T10:24:49.691Z,0.40
2023-12-16T10:29:58.058Z,0.60
2023-12-16T10:35:04.067Z,0.50
2023-12-16T10:40:01.922Z,0.30
2023-12-16T10:44:59.505Z,0.00
2023-12-16T10:50:00.427Z,0.20
2023-12-16T10:55:01.596Z,0.20
2023-12-16T11:00:07.329Z,0.20
2023-12-16T11:05:21.218Z,0.30
2023-12-16T11:10:19.978Z,0.20
2023-12-16T11:15:18.777Z,0.20
2023-12-16T11:20:19.425Z,0.20
2023-12-16T11:25:20.962Z,0.30
2023-12-16T11:30:23.385Z,0.30
2023-12-16T11:35:43.861Z,0.40
2023-12-16T11:40:43.624Z,0.40
2023-12-16T11:45:46.245Z,0.50
2023-12-16T11:50:51.107Z,0.40
2023-12-16T11:55:49.571Z,0.40
2023-12-16T12:00:50.734Z,0.50
2023-12-16T12:05:50.052Z,0.50
2023-12-16T12:10:50.247Z,0.60
2023-12-16T12:15:47.935Z,0.60
2023-12-16T12:20:45.941Z,0.60
2023-12-16T12:25:43.253Z,0.50
2023-12-16T12:30:40.636Z,0.50
2023-12-16T12:35:37.899Z,0.50
2023-12-16T12:40:35.143Z,0.60
2023-12-16T12:45:37.340Z,0.40
2023-12-16T12:50:35.620Z,0.60
2023-12-16T12:55:32.958Z,0.30
2023-12-16T13:00:30.313Z,0.40
2023-12-16T13:05:27.795Z,0.50
2023-12-16T13:10:25.199Z,0.70
2023-12-16T13:15:26.303Z,0.70
2023-12-16T13:20:47.213Z,0.70
2023-12-16T13:25:44.907Z,0.70
2023-12-16T13:30:46.067Z,0.60
2023-12-16T13:35:49.553Z,0.50
2023-12-16T13:40:52.151Z,0.90
2023-12-16T13:45:52.739Z,0.90
2023-12-16T13:50:51.401Z,0.90
2023-12-16T13:55:51.136Z,0.60
2023-12-16T14:00:51.102Z,0.60
2023-12-16T14:05:51.660Z,0.50
2023-12-16T14:10:53.514Z,0.60
2023-12-16T14:15:55.443Z,0.60
2023-12-16T14:20:57.167Z,0.60
2023-12-16T14:25:55.060Z,0.50
2023-12-16T14:30:53.050Z,0.70
2023-12-16T14:35:53.371Z,0.50
2023-12-16T14:40:52.225Z,0.50
2023-12-16T14:45:50.124Z,0.40
2023-12-16T14:50:48.043Z,0.40
2023-12-16T14:55:46.920Z,0.30
2023-12-16T15:00:45.380Z,0.30
2023-12-16T15:05:45.738Z,0.20
2023-12-16T15:10:43.646Z,0.10
2023-12-16T15:15:42.758Z,0.20
2023-12-16T15:20:40.199Z,0.20
2023-12-16T15:25:37.539Z,0.20
2023-12-16T15:30:35.097Z,0.10
2023-12-16T15:35:33.003Z,0.10
2023-12-16T15:40:34.248Z,0.00
2023-12-16T15:45:31.619Z,0.20
2023-12-16T15:50:29.003Z,0.10
2023-12-16T15:55:26.586Z,0.00
2023-12-16T16:00:25.212Z,0.10
2023-12-16T16:05:25.465Z,0.20
2023-12-16T16:10:23.439Z,0.30
2023-12-16T16:15:21.041Z,-0.10
2023-12-16T16:20:18.591Z,-0.10
2023-12-16T16:25:16.779Z,0.00
2023-12-16T16:30:14.273Z,0.00
2023-12-16T16:35:11.694Z,0.00
2023-12-16T16:40:09.678Z,-0.10
2023-12-16T16:45:07.500Z,-0.10
2023-12-16T16:50:05.640Z,-0.10
2023-12-16T16:55:03.454Z,-0.10
2023-12-16T17:00:09.634Z,0.00
2023-12-16T17:05:08.069Z,0.20
2023-12-16T17:10:09.219Z,0.20
2023-12-16T17:15:07.247Z,0.30
2023-12-16T17:20:05.399Z,0.20
2023-12-16T17:25:03.267Z,0.10
2023-12-16T17:30:01.353Z,0.00
2023-12-16T17:34:58.776Z,0.10
2023-12-16T17:39:56.054Z,0.00
2023-12-16T17:44:54.675Z,0.00
2023-12-16T17:49:52.098Z,-0.10
2023-12-16T17:54:49.597Z,0.00
2023-12-16T17:59:46.916Z,0.10
2023-12-16T18:04:44.355Z,0.20
2023-12-16T18:09:41.661Z,0.10
2023-12-16T18:14:39.128Z,0.00
2023-12-16T18:19:37.241Z,0.00
2023-12-16T18:24:34.916Z,0.10
2023-12-16T18:29:37.012Z,0.10
2023-12-16T18:34:36.877Z,0.10
2023-12-16T18:39:35.947Z,0.10
2023-12-16T18:44:34.485Z,0.10
2023-12-16T18:49:33.739Z,0.10
2023-12-16T18:54:31.278Z,0.10
2023-12-16T18:59:28.557Z,0.00
2023-12-16T19:04:26.144Z,0.00
2023-12-16T19:09:24.176Z,-0.20
2023-12-16T19:14:21.440Z,-0.20
2023-12-16T19:19:18.991Z,-0.40
2023-12-16T19:24:17.198Z,-0.60
2023-12-16T19:29:14.729Z,-0.70
2023-12-16T19:34:14.628Z,-0.60
2023-12-16T19:39:22.919Z,-0.60
2023-12-16T19:44:21.197Z,-0.60
2023-12-16T19:49:19.445Z,-0.50
2023-12-16T19:54:18.447Z,-0.40
2023-12-16T19:59:16.396Z,-0.40
2023-12-16T20:04:14.764Z,-0.30
2023-12-16T20:09:13.562Z,-0.30
2023-12-16T20:14:10.964Z,-0.30
2023-12-16T20:19:08.723Z,-0.60
2023-12-16T20:24:07.333Z,-0.50
2023-12-16T20:29:04.871Z,-0.50
2023-12-16T20:34:03.590Z,-0.50
2023-12-16T20:39:21.337Z,-0.60
2023-12-16T20:44:19.036Z,-0.50
2023-12-16T20:49:18.276Z,-0.50
2023-12-16T20:54:16.436Z,-0.50
2023-12-16T20:59:13.850Z,-0.40
2023-12-16T21:04:11.342Z,-0.40
2023-12-16T21:09:09.167Z,-0.40
2023-12-16T21:14:10.249Z,-0.30
2023-12-16T21:19:08.061Z,-0.20
2023-12-16T21:24:05.758Z,-0.30
2023-12-16T21:29:03.064Z,-0.40
2023-12-16T21:34:00.831Z,-0.40
2023-12-16T21:38:58.347Z,-0.50
2023-12-16T21:43:58.011Z,-0.50
2023-12-16T21:48:56.351Z,-0.50
2023-12-16T21:53:53.796Z,-0.50
2023-12-16T21:58:51.486Z,-0.60
2023-12-16T22:03:50.057Z,-0.60
2023-12-16T22:08:55.170Z,-0.60
2023-12-16T22:13:54.162Z,-0.60
2023-12-16T22:18:51.703Z,-0.70
2023-12-16T22:23:49.549Z,-0.70
2023-12-16T22:28:47.909Z,-0.70
2023-12-16T22:33:45.515Z,-0.60
2023-12-16T22:38:43.302Z,-0.70
2023-12-16T22:43:40.595Z,-0.70
2023-12-16T22:48:38.150Z,-0.70
2023-12-16T22:53:35.604Z,-0.80
2023-12-16T22:58:37.497Z,-0.80
2023-12-16T23:03:38.426Z,-0.80
2023-12-16T23:08:38.413Z,-0.70
2023-12-16T23:13:35.948Z,-0.60
2023-12-16T23:18:33.498Z,-0.60
2023-12-16T23:23:34.207Z,-0.70
2023-12-16T23:28:32.106Z,-0.70
2023-12-16T23:33:29.669Z,-0.80
2023-12-16T23:38:27.340Z,-0.90
2023-12-16T23:43:24.661Z,-0.90
2023-12-16T23:48:22.146Z,-0.90
2023-12-16T23:53:19.999Z,-0.90
2023-12-16T23:58:17.285Z,-0.90
